Time;durP1;ratioP1;P1;durP2;ratioP2;P2;SDS_P1;SDS_P2;PMS_P1;PMS_P2;Temp;Humidity;BMP_temperature;BMP_pressure;BME280_temperature;BME280_humidity;BME280_pressure;Samples;Min_cycle;Max_cycle;Signal;HPM_P1;HPM_P2
2021/12/10 00:00:44;;;;;;;8.82;5.20;;;2.60;99.90;;;;;;5057849;28;20021;-67
2021/12/10 00:03:18;;;;;;;11.75;5.65;;;2.60;99.90;;;;;;5057318;28;20029;-68
2021/12/10 00:05:58;;;;;;;9.80;5.00;;;2.60;99.90;;;;;;5055717;28;20306;-67
2021/12/10 00:08:32;;;;;;;9.88;5.15;;;2.60;99.90;;;;;;5055143;28;20021;-67
2021/12/10 00:11:04;;;;;;;9.40;5.43;;;2.70;99.90;;;;;;5056584;28;20043;-67
2021/12/10 00:13:32;;;;;;;9.80;5.57;;;2.70;99.90;;;;;;5056793;28;20025;-68
2021/12/10 00:16:00;;;;;;;17.90;6.95;;;2.70;99.90;;;;;;5056291;28;20217;-67
2021/12/10 00:18:33;;;;;;;16.65;6.97;;;2.70;99.90;;;;;;5056955;28;20313;-68
2021/12/10 00:21:03;;;;;;;11.23;5.90;;;2.70;99.90;;;;;;5055052;28;20107;-67
2021/12/10 00:23:32;;;;;;;16.27;7.07;;;2.70;99.90;;;;;;5056018;28;20032;-67
2021/12/10 00:26:01;;;;;;;13.07;5.95;;;2.70;99.90;;;;;;5055941;28;20036;-68
2021/12/10 00:28:40;;;;;;;13.43;5.63;;;2.70;99.90;;;;;;5056814;28;20069;-67
2021/12/10 00:34:19;;;;;;;15.40;6.40;;;2.70;99.90;;;;;;5057130;28;20048;-68
2021/12/10 00:36:47;;;;;;;10.70;6.15;;;2.70;99.90;;;;;;5057530;28;20459;-67
2021/12/10 00:39:20;;;;;;;12.95;6.15;;;2.70;99.90;;;;;;5057033;28;20372;-67
2021/12/10 00:41:48;;;;;;;12.20;6.18;;;2.70;99.90;;;;;;5057214;28;20421;-67
2021/12/10 00:44:15;;;;;;;13.98;6.20;;;2.70;99.90;;;;;;5057355;28;20037;-68
2021/12/10 00:46:43;;;;;;;10.52;5.78;;;2.80;99.90;;;;;;5056848;28;20045;-67
2021/12/10 00:49:11;;;;;;;11.07;6.28;;;2.70;99.90;;;;;;5056774;28;20017;-67
2021/12/10 00:51:40;;;;;;;15.25;7.60;;;2.70;99.90;;;;;;5056433;28;20021;-67
2021/12/10 00:54:09;;;;;;;12.07;5.30;;;2.80;99.90;;;;;;5055846;28;20047;-67
2021/12/10 00:56:37;;;;;;;11.60;6.22;;;2.80;99.90;;;;;;5056388;28;20122;-67
2021/12/10 00:59:05;;;;;;;10.90;5.35;;;2.80;99.90;;;;;;5056033;28;20444;-67
2021/12/10 01:01:33;;;;;;;13.75;6.05;;;2.80;99.90;;;;;;5054707;28;20381;-68
2021/12/10 01:04:14;;;;;;;12.07;6.32;;;2.80;99.90;;;;;;5056412;28;20028;-67
2021/12/10 01:06:46;;;;;;;10.20;5.95;;;2.80;99.90;;;;;;5059386;28;20333;-67
2021/12/10 01:09:22;;;;;;;12.95;6.50;;;2.80;99.90;;;;;;5059510;28;20021;-67
2021/12/10 01:12:00;;;;;;;11.80;6.25;;;2.80;99.90;;;;;;5060552;28;20021;-67
2021/12/10 01:14:56;;;;;;;13.13;6.28;;;2.80;99.90;;;;;;5060229;28;20029;-67
2021/12/10 01:25:56;;;;;;;12.73;6.22;;;2.90;99.90;;;;;;5060039;28;20072;-67
2021/12/10 01:28:24;;;;;;;11.52;6.10;;;2.80;99.90;;;;;;5060548;28;20052;-67
2021/12/10 01:30:51;;;;;;;14.10;5.55;;;2.80;99.90;;;;;;5059136;28;20017;-67
2021/12/10 01:33:19;;;;;;;12.45;6.80;;;2.80;99.90;;;;;;5058976;28;20079;-68
2021/12/10 01:35:55;;;;;;;11.70;6.13;;;2.90;99.90;;;;;;5058602;28;20016;-67
2021/12/10 01:38:25;;;;;;;11.77;5.97;;;2.90;99.90;;;;;;5059043;28;20033;-67
2021/12/10 01:40:58;;;;;;;12.15;6.03;;;2.90;99.90;;;;;;5058846;28;20025;-67
2021/12/10 01:43:28;;;;;;;10.80;5.72;;;2.90;99.90;;;;;;5058868;28;20098;-67
2021/12/10 01:46:10;;;;;;;10.73;6.57;;;2.90;99.90;;;;;;5058367;28;20021;-67
2021/12/10 01:48:44;;;;;;;12.27;6.47;;;2.90;99.90;;;;;;5058796;28;20321;-67
2021/12/10 01:51:16;;;;;;;12.00;5.95;;;2.90;99.90;;;;;;5058655;28;20048;-67
2021/12/10 01:53:47;;;;;;;12.45;6.15;;;2.90;99.90;;;;;;5059711;28;20021;-67
2021/12/10 01:56:19;;;;;;;15.80;6.72;;;2.90;99.90;;;;;;5059552;28;20025;-67
2021/12/10 01:58:47;;;;;;;11.38;5.63;;;2.90;99.90;;;;;;5059517;28;20077;-67
2021/12/10 02:01:31;;;;;;;14.27;5.78;;;2.90;99.90;;;;;;5059384;28;20028;-67
2021/12/10 02:04:03;;;;;;;13.18;6.22;;;2.90;99.90;;;;;;5059988;28;20034;-67
2021/12/10 02:06:30;;;;;;;18.45;7.22;;;2.90;99.90;;;;;;5059308;28;20321;-67
2021/12/10 02:08:57;;;;;;;12.35;5.90;;;2.90;99.90;;;;;;5059317;28;20017;-67
2021/12/10 02:11:25;;;;;;;13.25;6.30;;;2.90;99.90;;;;;;5059538;28;20324;-67
2021/12/10 02:13:52;;;;;;;14.65;6.40;;;2.90;99.90;;;;;;5058937;28;20032;-68
2021/12/10 02:16:20;;;;;;;11.25;5.90;;;2.90;99.90;;;;;;5057169;28;20056;-68
2021/12/10 02:18:49;;;;;;;11.88;6.35;;;2.90;99.90;;;;;;5057110;28;20375;-67
2021/12/10 02:21:22;;;;;;;11.68;5.95;;;2.90;99.90;;;;;;5058108;28;20027;-67
2021/12/10 02:23:57;;;;;;;8.73;5.00;;;2.90;99.90;;;;;;5058655;28;20025;-67
2021/12/10 02:26:30;;;;;;;11.90;6.22;;;2.90;99.90;;;;;;5057593;28;20071;-68
2021/12/10 02:28:58;;;;;;;12.38;5.78;;;2.90;99.90;;;;;;5058539;28;20072;-67
2021/12/10 02:31:26;;;;;;;11.02;6.15;;;2.90;99.90;;;;;;5040374;28;20374;-67
2021/12/10 02:33:55;;;;;;;13.25;5.97;;;2.90;99.90;;;;;;5056913;28;20333;-67
2021/12/10 02:36:24;;;;;;;10.90;5.40;;;2.80;99.90;;;;;;5056916;28;20037;-67
2021/12/10 02:38:53;;;;;;;15.48;6.07;;;2.80;99.90;;;;;;5058830;28;20024;-67
2021/12/10 02:41:28;;;;;;;10.57;4.93;;;2.80;99.90;;;;;;5058627;28;20036;-67
2021/12/10 02:43:58;;;;;;;10.05;5.43;;;2.70;99.90;;;;;;5059040;28;20342;-67
2021/12/10 02:46:25;;;;;;;14.52;6.78;;;2.70;99.90;;;;;;5058729;28;20021;-67
2021/12/10 02:48:53;;;;;;;10.77;5.53;;;2.60;99.90;;;;;;5058531;28;20021;-67
2021/12/10 02:51:22;;;;;;;10.82;5.65;;;2.60;99.90;;;;;;5057333;28;20033;-67
2021/12/10 02:53:50;;;;;;;10.48;5.45;;;2.60;99.90;;;;;;5058430;28;20444;-67
2021/12/10 02:56:22;;;;;;;13.32;5.80;;;2.60;99.90;;;;;;5058080;28;20037;-67
2021/12/10 02:58:53;;;;;;;12.55;6.30;;;2.60;99.90;;;;;;5057944;28;20029;-67
2021/12/10 03:01:24;;;;;;;10.55;5.38;;;2.50;99.90;;;;;;5056191;28;20424;-67
2021/12/10 03:03:51;;;;;;;9.82;5.32;;;2.50;99.90;;;;;;5057948;28;20036;-67
2021/12/10 03:06:21;;;;;;;12.07;5.90;;;2.50;99.90;;;;;;5057263;28;20348;-67
2021/12/10 03:08:51;;;;;;;10.10;5.25;;;2.50;99.90;;;;;;5057760;28;20025;-67
2021/12/10 03:11:34;;;;;;;12.30;5.32;;;2.50;99.90;;;;;;5057159;28;20032;-67
2021/12/10 03:14:08;;;;;;;19.45;6.47;;;2.50;99.90;;;;;;5057346;28;20017;-68
2021/12/10 03:16:40;;;;;;;11.13;5.30;;;2.50;99.90;;;;;;5057856;28;20031;-68
2021/12/10 03:19:07;;;;;;;11.90;5.85;;;2.50;99.90;;;;;;5057173;28;20320;-68
2021/12/10 03:21:44;;;;;;;15.07;5.22;;;2.60;99.90;;;;;;5057922;28;20333;-67
2021/12/10 03:24:18;;;;;;;9.88;5.40;;;2.60;99.90;;;;;;5057851;28;20417;-67
2021/12/10 03:26:46;;;;;;;13.15;5.90;;;2.60;99.90;;;;;;5056529;28;20047;-67
2021/12/10 03:29:13;;;;;;;12.00;5.70;;;2.60;99.90;;;;;;5040147;28;20028;-67
2021/12/10 03:31:40;;;;;;;11.30;6.07;;;2.60;99.90;;;;;;5057793;28;20017;-67
2021/12/10 03:34:08;;;;;;;13.10;6.15;;;2.60;99.90;;;;;;5057938;28;20055;-67
2021/12/10 03:36:36;;;;;;;11.98;5.82;;;2.70;99.90;;;;;;5058222;28;20082;-67
2021/12/10 03:39:06;;;;;;;11.82;5.40;;;2.70;99.90;;;;;;5057527;28;20059;-67
2021/12/10 03:41:34;;;;;;;9.45;4.68;;;2.70;99.90;;;;;;5055901;28;20057;-67
2021/12/10 03:44:01;;;;;;;13.25;5.15;;;2.70;99.90;;;;;;5056796;28;20033;-67
2021/12/10 03:46:28;;;;;;;8.80;4.68;;;2.70;99.90;;;;;;5055536;28;20057;-67
2021/12/10 03:48:56;;;;;;;10.63;5.45;;;2.70;99.90;;;;;;5056544;28;20028;-67
2021/12/10 03:51:25;;;;;;;9.35;5.00;;;2.70;99.90;;;;;;5055459;28;20021;-68
2021/12/10 03:53:53;;;;;;;11.00;5.00;;;2.70;99.90;;;;;;5056525;28;20031;-67
2021/12/10 03:56:22;;;;;;;13.20;5.45;;;2.70;99.90;;;;;;5055964;28;20029;-67
2021/12/10 03:58:51;;;;;;;9.07;4.85;;;2.80;99.90;;;;;;5056456;28;20024;-67
2021/12/10 04:01:23;;;;;;;13.75;5.53;;;2.80;99.90;;;;;;5056512;28;20108;-68
2021/12/10 04:03:53;;;;;;;12.27;4.80;;;2.80;99.90;;;;;;5057566;28;20018;-67
2021/12/10 04:06:22;;;;;;;10.23;5.50;;;2.80;99.90;;;;;;5057317;28;20278;-67
2021/12/10 04:08:50;;;;;;;12.13;5.40;;;2.90;99.90;;;;;;5057529;28;20146;-67
2021/12/10 04:11:19;;;;;;;9.05;5.07;;;2.80;99.90;;;;;;5057260;28;20321;-67
2021/12/10 04:13:50;;;;;;;13.82;5.60;;;2.90;99.90;;;;;;5057822;28;20025;-67
2021/12/10 04:16:19;;;;;;;10.25;5.15;;;2.90;99.90;;;;;;5057157;28;20099;-67
2021/12/10 04:18:49;;;;;;;11.43;4.97;;;2.90;99.90;;;;;;5057316;28;20029;-67
2021/12/10 04:21:19;;;;;;;14.00;7.15;;;2.90;99.90;;;;;;5055950;28;20036;-67
2021/12/10 04:23:47;;;;;;;9.38;4.80;;;2.90;99.90;;;;;;5056675;28;20025;-68
2021/12/10 04:26:19;;;;;;;11.35;5.57;;;2.90;99.90;;;;;;5055942;28;20076;-67
2021/12/10 04:28:47;;;;;;;12.98;5.43;;;3.00;99.90;;;;;;5056388;28;20013;-68
2021/12/10 04:31:15;;;;;;;12.20;5.75;;;2.90;99.90;;;;;;5056165;28;20325;-68
2021/12/10 04:33:43;;;;;;;12.20;5.68;;;2.90;99.90;;;;;;5056163;28;20103;-67
2021/12/10 04:36:11;;;;;;;11.23;5.53;;;2.90;99.90;;;;;;5054970;28;20033;-67
2021/12/10 04:38:38;;;;;;;10.30;5.30;;;2.90;99.90;;;;;;5056191;28;20112;-67
2021/12/10 04:41:08;;;;;;;10.95;4.90;;;2.90;99.90;;;;;;5059577;28;20029;-68
2021/12/10 04:43:38;;;;;;;9.27;5.30;;;2.90;99.90;;;;;;5058863;28;20037;-67
2021/12/10 04:46:06;;;;;;;11.15;5.70;;;2.90;99.90;;;;;;5061337;28;20017;-67
2021/12/10 04:48:44;;;;;;;14.10;6.25;;;2.80;99.90;;;;;;5061026;28;20432;-67
2021/12/10 04:51:12;;;;;;;12.73;5.30;;;2.80;99.90;;;;;;5061333;28;20032;-67
2021/12/10 04:53:40;;;;;;;10.32;5.72;;;2.80;99.90;;;;;;5061208;28;20147;-67
2021/12/10 04:56:08;;;;;;;11.95;5.57;;;2.80;99.90;;;;;;5060681;28;20021;-68
2021/12/10 04:58:35;;;;;;;8.70;5.35;;;2.80;99.90;;;;;;5059730;28;20035;-68
2021/12/10 05:01:03;;;;;;;8.60;4.80;;;2.80;99.90;;;;;;5059427;28;20044;-68
2021/12/10 05:03:31;;;;;;;10.45;5.03;;;2.90;99.90;;;;;;5060791;28;20436;-67
2021/12/10 05:06:03;;;;;;;8.50;5.05;;;2.80;99.90;;;;;;5059725;28;20029;-68
2021/12/10 05:08:35;;;;;;;8.55;4.40;;;2.90;99.90;;;;;;5059433;28;20024;-68
2021/12/10 05:11:08;;;;;;;9.73;4.68;;;2.90;99.90;;;;;;5059513;28;20028;-67
2021/12/10 05:13:37;;;;;;;7.15;4.57;;;2.90;99.90;;;;;;5059434;28;20362;-67
2021/12/10 05:16:05;;;;;;;9.73;4.88;;;2.90;99.90;;;;;;5059406;28;20028;-67
2021/12/10 05:18:38;;;;;;;8.80;4.00;;;2.90;99.90;;;;;;5058415;28;20087;-68
2021/12/10 05:21:07;;;;;;;6.57;3.58;;;2.90;99.90;;;;;;5060105;28;20294;-68
2021/12/10 05:23:35;;;;;;;8.85;3.72;;;2.80;99.90;;;;;;5059868;28;20025;-67
2021/12/10 05:26:04;;;;;;;7.55;3.70;;;2.80;99.90;;;;;;5057821;28;20068;-67
2021/12/10 05:28:32;;;;;;;8.05;4.18;;;2.70;99.90;;;;;;5060116;28;20025;-67
2021/12/10 05:31:00;;;;;;;9.38;4.15;;;2.70;99.90;;;;;;5060010;28;20329;-67
2021/12/10 05:33:29;;;;;;;7.82;4.20;;;2.60;99.90;;;;;;5060134;28;20063;-67
2021/12/10 05:36:01;;;;;;;9.05;3.88;;;2.60;99.90;;;;;;5060521;28;20036;-67
2021/12/10 05:38:31;;;;;;;6.47;3.50;;;2.50;99.90;;;;;;5059883;28;20036;-67
2021/12/10 05:41:00;;;;;;;6.72;3.92;;;2.40;99.90;;;;;;5059890;28;20111;-67
2021/12/10 05:43:28;;;;;;;7.18;3.55;;;2.30;99.90;;;;;;5060193;28;20340;-67
2021/12/10 05:45:56;;;;;;;9.52;4.05;;;2.20;99.90;;;;;;5059795;28;20028;-67
2021/12/10 05:48:23;;;;;;;8.13;3.55;;;2.20;99.90;;;;;;5058869;28;20029;-67
2021/12/10 05:50:52;;;;;;;6.40;3.40;;;2.10;99.90;;;;;;5059230;28;20013;-67
2021/12/10 05:53:20;;;;;;;8.98;4.28;;;2.10;99.90;;;;;;5058791;28;20024;-67
2021/12/10 05:55:48;;;;;;;5.55;3.78;;;2.10;99.90;;;;;;5058677;28;20017;-67
2021/12/10 05:58:16;;;;;;;7.43;3.67;;;2.10;99.90;;;;;;5058937;28;20099;-68
2021/12/10 06:00:49;;;;;;;8.50;3.88;;;2.10;99.90;;;;;;5058526;28;20027;-67
2021/12/10 06:03:17;;;;;;;7.88;3.75;;;2.20;99.90;;;;;;5059183;28;20040;-68
2021/12/10 06:05:47;;;;;;;8.40;4.13;;;2.20;99.90;;;;;;5058491;28;20041;-67
2021/12/10 06:08:16;;;;;;;14.75;7.90;;;2.20;99.90;;;;;;5058425;28;20055;-67
2021/12/10 06:10:44;;;;;;;7.75;3.92;;;2.20;99.90;;;;;;5058990;28;20021;-67
2021/12/10 06:13:12;;;;;;;10.10;5.30;;;2.30;99.90;;;;;;5059453;28;20048;-67
2021/12/10 06:15:39;;;;;;;7.55;4.13;;;2.20;99.90;;;;;;5059201;28;20104;-67
2021/12/10 06:18:07;;;;;;;7.55;3.80;;;2.20;99.90;;;;;;5058714;28;20029;-68
2021/12/10 06:20:40;;;;;;;6.65;3.33;;;2.20;99.90;;;;;;5059120;28;20068;-67
2021/12/10 06:23:08;;;;;;;7.00;3.70;;;2.20;99.90;;;;;;5059236;28;20032;-67
2021/12/10 06:25:38;;;;;;;8.65;3.83;;;2.10;99.90;;;;;;5058699;28;20444;-67
2021/12/10 06:28:06;;;;;;;8.48;3.38;;;2.10;99.90;;;;;;5057874;28;20025;-67
2021/12/10 06:30:38;;;;;;;6.63;3.50;;;2.00;99.90;;;;;;5058263;28;20361;-67
2021/12/10 06:33:08;;;;;;;7.15;2.92;;;2.00;99.90;;;;;;5058464;28;20029;-67
2021/12/10 06:35:40;;;;;;;4.70;2.65;;;2.00;99.90;;;;;;5058229;28;20021;-67
2021/12/10 06:38:09;;;;;;;8.50;3.13;;;1.90;99.90;;;;;;5058261;28;20091;-67
2021/12/10 06:40:41;;;;;;;5.55;3.10;;;1.90;99.90;;;;;;5057815;28;20321;-67
2021/12/10 06:43:09;;;;;;;5.95;3.28;;;1.80;99.90;;;;;;5058291;28;20025;-67
2021/12/10 06:45:37;;;;;;;4.13;2.40;;;1.80;99.90;;;;;;5057706;28;20041;-67
2021/12/10 06:48:07;;;;;;;11.45;3.28;;;1.70;99.90;;;;;;5058392;28;20432;-67
2021/12/10 06:50:41;;;;;;;6.65;2.90;;;1.70;99.90;;;;;;5057896;28;20317;-67
2021/12/10 06:53:09;;;;;;;9.93;3.33;;;1.60;99.90;;;;;;5058699;28;20032;-68
2021/12/10 06:55:37;;;;;;;6.85;2.65;;;1.60;99.90;;;;;;5058440;28;20025;-67
2021/12/10 06:58:06;;;;;;;9.00;3.00;;;1.60;99.90;;;;;;5058512;28;20029;-67
2021/12/10 07:00:44;;;;;;;6.43;2.88;;;1.60;99.90;;;;;;5058355;28;20029;-67
2021/12/10 07:03:20;;;;;;;6.30;3.25;;;1.60;99.90;;;;;;5058265;28;20112;-70
2021/12/10 07:05:48;;;;;;;4.97;2.92;;;1.60;99.90;;;;;;5058163;28;20320;-71
2021/12/10 07:08:17;;;;;;;9.45;3.55;;;1.60;99.90;;;;;;5058360;28;20413;-70
2021/12/10 07:10:45;;;;;;;6.30;3.10;;;1.60;99.90;;;;;;5058146;28;20413;-70
2021/12/10 07:13:13;;;;;;;7.35;3.45;;;1.60;99.90;;;;;;5056330;28;20417;-70
2021/12/10 07:15:44;;;;;;;7.22;3.78;;;1.60;99.90;;;;;;5057130;28;20108;-70
2021/12/10 07:18:12;;;;;;;9.40;3.58;;;1.60;99.90;;;;;;5057248;28;20021;-70
2021/12/10 07:20:41;;;;;;;9.30;3.55;;;1.60;99.90;;;;;;5057059;28;20048;-70
2021/12/10 07:23:10;;;;;;;5.78;2.95;;;1.60;99.90;;;;;;5055808;28;20036;-70
2021/12/10 07:25:37;;;;;;;9.60;3.55;;;1.60;99.90;;;;;;5057067;28;20045;-70
2021/12/10 07:28:06;;;;;;;9.55;3.88;;;1.60;99.90;;;;;;5057167;28;20028;-71
2021/12/10 07:30:34;;;;;;;5.88;3.17;;;1.60;99.90;;;;;;5056841;28;20021;-72
2021/12/10 07:33:02;;;;;;;11.93;3.60;;;1.70;99.90;;;;;;5055773;28;20039;-72
2021/12/10 07:35:30;;;;;;;11.07;3.80;;;1.70;99.90;;;;;;5057272;28;20321;-71
2021/12/10 07:37:57;;;;;;;6.38;3.35;;;1.80;99.90;;;;;;5057652;28;20040;-72
2021/12/10 07:40:27;;;;;;;5.82;3.33;;;1.90;99.90;;;;;;5056564;28;20055;-72
2021/12/10 07:42:55;;;;;;;9.55;3.78;;;2.00;99.90;;;;;;5057585;28;20029;-71
2021/12/10 07:45:23;;;;;;;10.00;4.47;;;2.10;99.90;;;;;;5057587;28;20417;-68
2021/12/10 07:47:54;;;;;;;6.32;3.40;;;2.10;99.90;;;;;;5057876;28;20294;-71
2021/12/10 07:50:27;;;;;;;11.23;3.60;;;2.20;99.90;;;;;;5057774;28;20021;-72
2021/12/10 07:52:56;;;;;;;7.80;3.28;;;2.30;99.90;;;;;;5057775;28;20035;-72
2021/12/10 07:55:32;;;;;;;4.20;2.33;;;2.30;99.90;;;;;;5056659;28;20056;-72
2021/12/10 07:58:05;;;;;;;7.43;3.33;;;2.40;99.90;;;;;;5057271;28;20286;-72
2021/12/10 08:00:35;;;;;;;7.20;2.45;;;2.50;99.90;;;;;;5056479;28;20032;-72
2021/12/10 08:03:03;;;;;;;4.70;2.53;;;2.50;99.90;;;;;;5056283;28;20048;-68
2021/12/10 08:05:30;;;;;;;6.28;2.92;;;2.60;99.90;;;;;;5056941;28;20070;-68
2021/12/10 08:07:58;;;;;;;4.57;2.30;;;2.60;99.90;;;;;;5056502;28;20135;-66
2021/12/10 08:10:28;;;;;;;6.35;2.45;;;2.70;99.90;;;;;;5056372;28;20025;-68
2021/12/10 08:12:56;;;;;;;5.40;2.17;;;2.80;99.90;;;;;;5057179;28;20401;-67
2021/12/10 08:15:23;;;;;;;8.02;2.47;;;2.80;99.90;;;;;;5058880;28;20033;-67
2021/12/10 08:17:51;;;;;;;6.03;2.40;;;2.80;99.90;;;;;;5060117;28;20021;-67
2021/12/10 08:20:23;;;;;;;9.32;3.00;;;2.80;99.90;;;;;;5060439;28;20033;-67
2021/12/10 08:22:52;;;;;;;5.53;2.88;;;2.90;99.90;;;;;;5061678;28;20436;-68
2021/12/10 08:25:24;;;;;;;5.20;2.50;;;2.90;99.90;;;;;;5061025;28;20063;-68
2021/12/10 08:27:53;;;;;;;7.57;2.80;;;3.00;99.90;;;;;;5061510;28;20017;-67
2021/12/10 08:30:23;;;;;;;10.07;2.88;;;3.00;99.90;;;;;;5061106;28;20036;-67
2021/12/10 08:32:54;;;;;;;8.43;2.78;;;3.00;99.90;;;;;;5061152;28;20070;-67
2021/12/10 08:35:26;;;;;;;6.68;3.08;;;3.00;99.90;;;;;;5060891;28;20086;-66
2021/12/10 08:37:54;;;;;;;12.25;3.30;;;3.10;99.90;;;;;;5060620;28;20032;-67
2021/12/10 08:40:37;;;;;;;8.55;2.72;;;3.00;99.90;;;;;;5060610;28;20409;-67
2021/12/10 08:43:05;;;;;;;4.20;2.95;;;3.00;99.90;;;;;;5058916;28;20033;-67
2021/12/10 08:45:33;;;;;;;6.63;2.85;;;3.00;99.90;;;;;;5059996;28;20013;-67
2021/12/10 08:48:02;;;;;;;10.15;3.17;;;3.00;99.90;;;;;;5060172;28;20100;-67
2021/12/10 08:50:30;;;;;;;9.07;3.78;;;3.00;99.90;;;;;;5058736;28;20021;-67
2021/12/10 08:53:01;;;;;;;4.40;2.53;;;3.00;99.90;;;;;;5059868;28;20474;-67
2021/12/10 08:55:30;;;;;;;6.90;2.40;;;2.90;99.90;;;;;;5059826;28;20035;-66
2021/12/10 08:57:58;;;;;;;8.95;2.63;;;2.90;99.90;;;;;;5060266;28;20056;-67
2021/12/10 09:00:26;;;;;;;7.53;2.53;;;3.00;99.90;;;;;;5060663;28;20049;-68
2021/12/10 09:02:57;;;;;;;5.75;2.90;;;3.00;99.90;;;;;;5059490;28;20025;-67
2021/12/10 09:05:26;;;;;;;9.07;3.47;;;3.00;99.90;;;;;;5060720;28;20104;-67
2021/12/10 09:07:57;;;;;;;5.68;2.28;;;3.10;99.90;;;;;;5059353;28;20021;-67
2021/12/10 09:10:31;;;;;;;6.43;2.67;;;3.10;99.90;;;;;;5060485;28;20024;-67
2021/12/10 09:13:00;;;;;;;7.45;2.22;;;3.10;99.90;;;;;;5061024;28;20039;-67
2021/12/10 09:15:29;;;;;;;6.18;2.35;;;3.10;99.90;;;;;;5060405;28;20025;-67
2021/12/10 09:17:58;;;;;;;4.95;2.17;;;3.20;99.90;;;;;;5060192;28;20025;-67
2021/12/10 09:20:35;;;;;;;6.03;2.53;;;3.20;99.90;;;;;;5058138;28;20048;-67
2021/12/10 09:23:04;;;;;;;8.45;2.33;;;3.30;99.90;;;;;;5058911;28;20147;-67
2021/12/10 09:25:32;;;;;;;3.30;2.22;;;3.40;99.90;;;;;;5058557;28;20144;-67
2021/12/10 09:28:00;;;;;;;7.28;2.47;;;3.50;99.90;;;;;;5059330;28;20028;-70
2021/12/10 09:30:32;;;;;;;4.13;1.80;;;3.60;99.90;;;;;;5059689;28;20024;-69
2021/12/10 09:33:00;;;;;;;3.08;1.60;;;3.70;99.90;;;;;;5059683;28;20527;-70
2021/12/10 09:35:30;;;;;;;4.53;1.90;;;3.80;99.90;;;;;;5059031;28;20441;-70
2021/12/10 09:37:59;;;;;;;4.22;2.28;;;3.80;99.90;;;;;;5058030;28;20126;-70
2021/12/10 09:40:33;;;;;;;5.68;2.00;;;3.90;99.90;;;;;;5059156;28;20017;-70
2021/12/10 09:43:01;;;;;;;3.03;1.92;;;4.00;99.90;;;;;;5060312;28;20038;-69
2021/12/10 09:45:33;;;;;;;4.40;1.80;;;4.00;99.90;;;;;;5060209;28;20017;-69
2021/12/10 09:48:01;;;;;;;5.28;1.45;;;3.90;99.90;;;;;;5058763;28;20108;-68
2021/12/10 09:50:32;;;;;;;7.13;1.80;;;3.90;99.90;;;;;;5059629;28;20021;-68
2021/12/10 09:52:59;;;;;;;3.45;1.73;;;3.90;99.90;;;;;;5058336;28;20029;-68
2021/12/10 09:55:28;;;;;;;4.03;1.70;;;3.80;99.90;;;;;;5059576;28;20020;-68
2021/12/10 09:57:58;;;;;;;3.05;1.77;;;3.80;99.90;;;;;;5059826;28;20028;-70
2021/12/10 10:00:39;;;;;;;3.00;1.70;;;3.80;99.90;;;;;;5059185;28;20021;-68
2021/12/10 10:03:11;;;;;;;5.05;2.03;;;3.70;99.90;;;;;;5058745;28;20025;-68
2021/12/10 10:05:43;;;;;;;3.33;1.60;;;3.70;99.90;;;;;;5058448;28;20358;-68
2021/12/10 10:08:15;;;;;;;4.43;1.52;;;3.60;99.90;;;;;;5058050;28;20396;-68
2021/12/10 10:10:49;;;;;;;5.15;1.60;;;3.60;99.90;;;;;;5058377;28;20417;-68
2021/12/10 10:13:29;;;;;;;3.13;1.80;;;3.60;99.90;;;;;;5058342;28;20037;-67
2021/12/10 10:15:59;;;;;;;5.80;2.28;;;3.50;99.90;;;;;;5058826;28;20024;-67
2021/12/10 10:18:33;;;;;;;4.93;1.63;;;3.50;99.90;;;;;;5058242;28;20425;-68
2021/12/10 10:21:11;;;;;;;4.28;2.13;;;3.50;99.90;;;;;;5058700;28;20317;-68
2021/12/10 10:23:41;;;;;;;5.35;1.98;;;3.50;99.90;;;;;;5059175;28;20028;-67
2021/12/10 10:26:17;;;;;;;4.15;1.65;;;3.50;99.90;;;;;;5058819;28;20048;-67
2021/12/10 10:28:45;;;;;;;4.38;1.80;;;3.60;99.90;;;;;;5059528;28;20021;-80
2021/12/10 10:31:19;;;;;;;5.38;2.00;;;3.60;99.90;;;;;;5058858;28;20021;-67
2021/12/10 10:33:51;;;;;;;3.53;1.60;;;3.80;99.90;;;;;;5059001;28;20029;-67
2021/12/10 10:36:23;;;;;;;3.35;1.40;;;3.90;99.90;;;;;;5058711;28;20029;-68
2021/12/10 10:39:09;;;;;;;6.50;1.75;;;4.00;99.90;;;;;;5058649;28;20394;-68
2021/12/10 10:41:39;;;;;;;4.88;1.63;;;4.10;99.90;;;;;;5058314;28;20025;-68
2021/12/10 10:44:08;;;;;;;2.67;1.40;;;4.20;99.90;;;;;;5056775;28;20447;-67
2021/12/10 10:46:36;;;;;;;3.92;1.50;;;4.40;99.90;;;;;;5058273;28;20401;-67
2021/12/10 10:49:06;;;;;;;3.33;1.00;;;4.50;99.90;;;;;;5058248;28;20017;-67
2021/12/10 10:51:38;;;;;;;4.60;1.50;;;4.60;99.90;;;;;;5057653;28;20079;-67
2021/12/10 10:54:10;;;;;;;2.20;1.40;;;4.70;99.90;;;;;;5057664;28;20025;-67
2021/12/10 10:56:46;;;;;;;3.17;1.50;;;4.80;99.90;;;;;;5057569;28;20298;-67
2021/12/10 10:59:24;;;;;;;3.25;1.40;;;4.80;99.90;;;;;;5057470;28;20036;-68
2021/12/10 11:02:08;;;;;;;5.65;1.52;;;4.80;99.90;;;;;;5058206;28;20028;-67
2021/12/10 11:04:46;;;;;;;6.03;2.42;;;4.90;99.90;;;;;;5058289;28;20025;-69
2021/12/10 11:07:20;;;;;;;4.30;1.48;;;4.90;99.90;;;;;;5057077;28;20044;-68
2021/12/10 11:09:53;;;;;;;5.32;1.90;;;5.00;99.90;;;;;;5058484;28;20025;-67
2021/12/10 11:12:26;;;;;;;6.32;3.10;;;5.00;99.90;;;;;;5058102;28;20045;-67
2021/12/10 11:14:58;;;;;;;3.85;1.50;;;5.00;99.90;;;;;;5058221;28;20329;-67
2021/12/10 11:17:37;;;;;;;6.95;2.65;;;5.00;99.90;;;;;;5058504;28;20104;-66
2021/12/10 11:20:22;;;;;;;8.77;1.40;;;5.00;99.90;;;;;;5058584;28;20021;-67
2021/12/10 11:22:59;;;;;;;5.18;1.65;;;5.00;99.90;;;;;;5057780;28;20053;-66
2021/12/10 11:25:41;;;;;;;6.65;2.20;;;5.00;99.90;;;;;;5056788;28;20056;-67
2021/12/10 11:28:21;;;;;;;2.05;1.25;;;5.00;99.90;;;;;;5057258;28;20086;-67
2021/12/10 11:31:02;;;;;;;2.33;1.10;;;5.10;99.90;;;;;;5057133;28;20017;-70
2021/12/10 11:33:41;;;;;;;4.70;1.27;;;5.10;99.90;;;;;;5057019;28;20032;-69
2021/12/10 11:36:16;;;;;;;2.85;1.23;;;5.20;99.90;;;;;;5057220;28;20017;-69
2021/12/10 11:38:46;;;;;;;4.53;1.63;;;5.20;99.90;;;;;;5056924;28;20021;-68
2021/12/10 11:41:23;;;;;;;3.05;1.15;;;5.30;99.90;;;;;;5056673;28;20079;-68
2021/12/10 11:44:37;;;;;;;2.10;0.90;;;5.30;99.90;;;;;;5056737;28;20021;-68
2021/12/10 11:49:42;;;;;;;4.32;1.10;;;5.40;99.90;;;;;;5057425;28;20017;-68
2021/12/10 11:52:17;;;;;;;2.80;1.20;;;5.40;99.90;;;;;;5057988;28;20448;-69
2021/12/10 11:54:51;;;;;;;4.78;1.58;;;5.50;99.90;;;;;;5057673;28;20025;-68
2021/12/10 11:57:25;;;;;;;4.00;1.60;;;5.50;99.90;;;;;;5056319;28;20032;-70
2021/12/10 12:00:01;;;;;;;2.08;1.27;;;5.50;99.90;;;;;;5057482;28;20017;-69
2021/12/10 12:02:46;;;;;;;3.80;1.38;;;5.50;99.90;;;;;;5057860;28;20021;-68
2021/12/10 12:05:21;;;;;;;3.53;1.35;;;5.60;99.90;;;;;;5057550;28;20055;-69
2021/12/10 12:08:00;;;;;;;2.78;1.33;;;5.60;99.90;;;;;;5057304;28;20017;-67
2021/12/10 12:10:42;;;;;;;11.52;2.97;;;5.70;99.90;;;;;;5056380;28;20025;-69
2021/12/10 12:13:26;;;;;;;3.60;1.30;;;5.70;99.90;;;;;;5055534;28;20039;-69
2021/12/10 12:16:00;;;;;;;3.95;1.35;;;5.70;99.90;;;;;;5056380;28;20036;-69
2021/12/10 12:18:35;;;;;;;2.13;0.98;;;5.70;99.90;;;;;;5057096;28;20079;-71
2021/12/10 12:27:14;;;;;;;3.45;0.90;;;5.50;99.90;;;;;;5056105;28;20056;-81
2021/12/10 12:29:49;;;;;;;4.05;1.17;;;5.40;99.90;;;;;;5055472;28;20041;-68
2021/12/10 12:32:23;;;;;;;2.00;1.10;;;5.30;99.90;;;;;;5057151;28;20021;-68
2021/12/10 12:34:52;;;;;;;6.18;1.85;;;5.20;99.90;;;;;;5057136;28;20017;-68
2021/12/10 12:37:21;;;;;;;4.97;1.63;;;5.10;99.90;;;;;;5056985;28;20078;-68
2021/12/10 12:39:55;;;;;;;7.20;2.13;;;5.00;99.90;;;;;;5057175;28;20025;-68
2021/12/10 12:42:27;;;;;;;4.97;1.20;;;4.90;99.90;;;;;;5057024;28;20017;-68
2021/12/10 12:45:13;;;;;;;3.65;1.25;;;4.90;99.90;;;;;;5055834;28;20029;-68
2021/12/10 12:47:44;;;;;;;12.18;1.80;;;4.90;99.90;;;;;;5057008;28;20029;-68
2021/12/10 12:50:18;;;;;;;10.15;1.85;;;5.00;99.90;;;;;;5055656;28;20333;-68
2021/12/10 12:52:58;;;;;;;8.65;1.60;;;5.00;99.90;;;;;;5056214;28;20312;-68
2021/12/10 12:55:47;;;;;;;5.95;1.52;;;5.00;99.90;;;;;;5056526;28;20024;-68
2021/12/10 12:58:31;;;;;;;4.75;1.88;;;5.10;99.90;;;;;;5056630;28;20013;-68
2021/12/10 13:01:09;;;;;;;6.15;1.70;;;5.10;99.90;;;;;;5056473;28;20112;-67
2021/12/10 13:03:46;;;;;;;3.47;1.52;;;5.20;99.90;;;;;;5059529;28;20083;-68
2021/12/10 13:06:20;;;;;;;5.65;1.33;;;5.20;99.90;;;;;;5058482;28;20032;-68
2021/12/10 13:09:13;;;;;;;3.40;1.20;;;5.20;99.90;;;;;;5059709;28;20036;-68
2021/12/10 13:12:00;;;;;;;17.58;3.72;;;5.10;99.90;;;;;;5059985;28;20086;-67
2021/12/10 13:14:35;;;;;;;5.72;2.20;;;5.10;99.90;;;;;;5061234;28;20359;-72
2021/12/10 13:17:19;;;;;;;7.32;3.00;;;5.00;99.90;;;;;;5061286;28;20059;-68
2021/12/10 13:19:47;;;;;;;7.70;1.88;;;4.80;99.90;;;;;;5060509;28;20025;-70
2021/12/10 13:22:19;;;;;;;6.88;2.20;;;4.70;99.90;;;;;;5060649;28;20032;-70
2021/12/10 13:24:53;;;;;;;6.85;2.17;;;4.70;99.90;;;;;;5060409;28;20114;-70
2021/12/10 13:27:25;;;;;;;7.60;1.63;;;4.50;99.90;;;;;;5060660;28;20032;-70
2021/12/10 13:29:53;;;;;;;3.60;1.65;;;4.50;99.90;;;;;;5060229;28;20147;-69
2021/12/10 13:32:21;;;;;;;12.38;3.00;;;4.40;99.90;;;;;;5060454;28;20025;-69
2021/12/10 13:34:49;;;;;;;9.55;3.60;;;4.40;99.90;;;;;;5059184;28;20033;-69